sensor_id;sensor_type;location;lat;lon;timestamp;pressure;altitude;pressure_sealevel;temperature;humidity
72414;BME280;60995;52.154;4.498;2023-09-19T00:00:49;100640.72;;;17.39;100.00
72414;BME280;60995;52.154;4.498;2023-09-19T00:03:05;100638.94;;;17.46;100.00
72414;BME280;60995;52.154;4.498;2023-09-19T00:05:22;100649.63;;;17.41;100.00
72414;BME280;60995;52.154;4.498;2023-09-19T00:07:39;100647.94;;;17.40;100.00
72414;BME280;60995;52.154;4.498;2023-09-19T00:09:56;100651.16;;;17.58;100.00
72414;BME280;60995;52.154;4.498;2023-09-19T00:12:12;100656.06;;;17.48;100.00
72414;BME280;60995;52.154;4.498;2023-09-19T00:14:29;100661.34;;;17.34;100.00
72414;BME280;60995;52.154;4.498;2023-09-19T00:16:45;100665.84;;;17.27;100.00
72414;BME280;60995;52.154;4.498;2023-09-19T00:19:05;100652.44;;;17.32;100.00
72414;BME280;60995;52.154;4.498;2023-09-19T00:21:24;100664.09;;;17.34;100.00
72414;BME280;60995;52.154;4.498;2023-09-19T00:23:40;100652.16;;;17.27;100.00
72414;BME280;60995;52.154;4.498;2023-09-19T00:26:01;100660.97;;;17.38;100.00
72414;BME280;60995;52.154;4.498;2023-09-19T00:28:17;100660.97;;;17.38;100.00
72414;BME280;60995;52.154;4.498;2023-09-19T00:30:35;100671.47;;;17.34;100.00
72414;BME280;60995;52.154;4.498;2023-09-19T00:32:52;100669.47;;;17.28;100.00
72414;BME280;60995;52.154;4.498;2023-09-19T00:35:11;100670.25;;;17.36;100.00
72414;BME280;60995;52.154;4.498;2023-09-19T00:37:27;100680.84;;;17.40;100.00
72414;BME280;60995;52.154;4.498;2023-09-19T00:39:43;100668.72;;;17.34;100.00
72414;BME280;60995;52.154;4.498;2023-09-19T00:41:59;100669.28;;;17.29;100.00
72414;BME280;60995;52.154;4.498;2023-09-19T00:44:20;100658.84;;;17.25;100.00
72414;BME280;60995;52.154;4.498;2023-09-19T00:46:39;100666.63;;;17.36;100.00
72414;BME280;60995;52.154;4.498;2023-09-19T00:48:55;100662.66;;;17.39;100.00
72414;BME280;60995;52.154;4.498;2023-09-19T00:51:13;100666.69;;;17.51;100.00
72414;BME280;60995;52.154;4.498;2023-09-19T00:53:31;100662.69;;;17.53;100.00
72414;BME280;60995;52.154;4.498;2023-09-19T00:55:50;100671.97;;;17.52;100.00
72414;BME280;60995;52.154;4.498;2023-09-19T00:58:08;100677.94;;;17.56;100.00
72414;BME280;60995;52.154;4.498;2023-09-19T01:00:26;100674.72;;;17.52;100.00
72414;BME280;60995;52.154;4.498;2023-09-19T01:02:43;100678.97;;;17.55;100.00
72414;BME280;60995;52.154;4.498;2023-09-19T01:04:59;100679.63;;;17.57;100.00
72414;BME280;60995;52.154;4.498;2023-09-19T01:07:17;100684.06;;;17.58;100.00
72414;BME280;60995;52.154;4.498;2023-09-19T01:09:34;100670.81;;;17.47;100.00
72414;BME280;60995;52.154;4.498;2023-09-19T01:11:53;100684.47;;;17.55;100.00
72414;BME280;60995;52.154;4.498;2023-09-19T01:16:53;100677.53;;;17.44;100.00
72414;BME280;60995;52.154;4.498;2023-09-19T01:28:31;100688.47;;;17.29;100.00
72414;BME280;60995;52.154;4.498;2023-09-19T01:30:57;100686.13;;;17.41;100.00
72414;BME280;60995;52.154;4.498;2023-09-19T01:33:16;100687.00;;;17.42;100.00
72414;BME280;60995;52.154;4.498;2023-09-19T01:35:35;100691.66;;;17.56;100.00
72414;BME280;60995;52.154;4.498;2023-09-19T01:37:54;100695.13;;;17.50;100.00
72414;BME280;60995;52.154;4.498;2023-09-19T01:40:17;100687.66;;;17.44;100.00
72414;BME280;60995;52.154;4.498;2023-09-19T01:42:44;100697.19;;;17.33;100.00
72414;BME280;60995;52.154;4.498;2023-09-19T01:45:19;100687.78;;;17.27;100.00
72414;BME280;60995;52.154;4.498;2023-09-19T01:50:53;100684.50;;;17.32;100.00
72414;BME280;60995;52.154;4.498;2023-09-19T01:53:26;100693.66;;;17.24;100.00
72414;BME280;60995;52.154;4.498;2023-09-19T01:55:48;100694.16;;;17.28;100.00
72414;BME280;60995;52.154;4.498;2023-09-19T01:58:48;100684.75;;;17.22;100.00
72414;BME280;60995;52.154;4.498;2023-09-19T02:01:08;100688.78;;;17.34;100.00
72414;BME280;60995;52.154;4.498;2023-09-19T02:03:27;100688.09;;;17.32;100.00
72414;BME280;60995;52.154;4.498;2023-09-19T02:05:51;100692.19;;;17.36;100.00
72414;BME280;60995;52.154;4.498;2023-09-19T02:08:09;100689.88;;;17.25;100.00
72414;BME280;60995;52.154;4.498;2023-09-19T02:10:26;100691.31;;;17.36;100.00
72414;BME280;60995;52.154;4.498;2023-09-19T02:12:42;100686.53;;;17.15;100.00
72414;BME280;60995;52.154;4.498;2023-09-19T02:14:59;100696.09;;;17.19;100.00
72414;BME280;60995;52.154;4.498;2023-09-19T02:17:15;100705.25;;;17.11;100.00
72414;BME280;60995;52.154;4.498;2023-09-19T02:19:32;100700.97;;;17.09;100.00
72414;BME280;60995;52.154;4.498;2023-09-19T02:21:49;100698.91;;;17.11;100.00
72414;BME280;60995;52.154;4.498;2023-09-19T02:24:06;100705.13;;;17.05;100.00
72414;BME280;60995;52.154;4.498;2023-09-19T02:26:24;100708.78;;;16.97;100.00
72414;BME280;60995;52.154;4.498;2023-09-19T02:28:40;100703.13;;;16.98;100.00
72414;BME280;60995;52.154;4.498;2023-09-19T02:30:56;100704.44;;;17.02;100.00
72414;BME280;60995;52.154;4.498;2023-09-19T02:33:12;100709.28;;;17.00;100.00
72414;BME280;60995;52.154;4.498;2023-09-19T02:35:29;100716.22;;;17.11;100.00
72414;BME280;60995;52.154;4.498;2023-09-19T02:37:51;100703.53;;;17.10;100.00
72414;BME280;60995;52.154;4.498;2023-09-19T02:40:08;100708.28;;;17.16;100.00
72414;BME280;60995;52.154;4.498;2023-09-19T02:42:34;100701.59;;;17.19;100.00
72414;BME280;60995;52.154;4.498;2023-09-19T02:44:50;100708.41;;;17.23;100.00
72414;BME280;60995;52.154;4.498;2023-09-19T02:47:07;100708.22;;;17.25;100.00
72414;BME280;60995;52.154;4.498;2023-09-19T02:49:23;100704.25;;;17.27;100.00
72414;BME280;60995;52.154;4.498;2023-09-19T02:51:39;100701.34;;;17.29;100.00
72414;BME280;60995;52.154;4.498;2023-09-19T02:53:55;100697.84;;;17.35;100.00
72414;BME280;60995;52.154;4.498;2023-09-19T02:56:12;100691.41;;;17.43;100.00
72414;BME280;60995;52.154;4.498;2023-09-19T02:58:29;100693.50;;;17.41;100.00
72414;BME280;60995;52.154;4.498;2023-09-19T03:00:46;100693.88;;;17.38;100.00
72414;BME280;60995;52.154;4.498;2023-09-19T03:03:03;100699.66;;;17.43;100.00
72414;BME280;60995;52.154;4.498;2023-09-19T03:05:23;100701.28;;;17.52;100.00
72414;BME280;60995;52.154;4.498;2023-09-19T03:07:39;100702.25;;;17.59;100.00
72414;BME280;60995;52.154;4.498;2023-09-19T03:09:55;100698.22;;;17.47;100.00
72414;BME280;60995;52.154;4.498;2023-09-19T03:12:12;100697.50;;;17.53;100.00
72414;BME280;60995;52.154;4.498;2023-09-19T03:14:31;100692.09;;;17.45;100.00
72414;BME280;60995;52.154;4.498;2023-09-19T03:16:51;100692.59;;;17.48;100.00
72414;BME280;60995;52.154;4.498;2023-09-19T03:19:08;100697.13;;;17.56;100.00
72414;BME280;60995;52.154;4.498;2023-09-19T03:21:26;100692.75;;;17.47;100.00
72414;BME280;60995;52.154;4.498;2023-09-19T03:23:45;100689.56;;;17.58;100.00
72414;BME280;60995;52.154;4.498;2023-09-19T03:26:01;100691.13;;;17.38;100.00
72414;BME280;60995;52.154;4.498;2023-09-19T03:28:18;100683.88;;;17.45;100.00
72414;BME280;60995;52.154;4.498;2023-09-19T03:30:36;100692.94;;;17.30;100.00
72414;BME280;60995;52.154;4.498;2023-09-19T03:32:52;100691.22;;;17.29;100.00
72414;BME280;60995;52.154;4.498;2023-09-19T03:35:08;100696.84;;;17.13;100.00
72414;BME280;60995;52.154;4.498;2023-09-19T03:37:27;100707.06;;;17.19;100.00
72414;BME280;60995;52.154;4.498;2023-09-19T03:39:43;100702.00;;;17.08;100.00
72414;BME280;60995;52.154;4.498;2023-09-19T03:42:00;100707.94;;;17.19;100.00
72414;BME280;60995;52.154;4.498;2023-09-19T03:44:17;100707.06;;;17.19;100.00
72414;BME280;60995;52.154;4.498;2023-09-19T03:46:33;100712.31;;;17.06;100.00
72414;BME280;60995;52.154;4.498;2023-09-19T03:48:51;100720.13;;;17.17;100.00
72414;BME280;60995;52.154;4.498;2023-09-19T03:51:07;100711.22;;;17.15;100.00
72414;BME280;60995;52.154;4.498;2023-09-19T03:53:24;100714.66;;;17.17;100.00
72414;BME280;60995;52.154;4.498;2023-09-19T03:55:40;100723.78;;;17.09;100.00
72414;BME280;60995;52.154;4.498;2023-09-19T03:57:56;100711.28;;;17.07;100.00
72414;BME280;60995;52.154;4.498;2023-09-19T04:00:13;100713.06;;;16.99;100.00
72414;BME280;60995;52.154;4.498;2023-09-19T04:02:30;100720.47;;;16.91;100.00
72414;BME280;60995;52.154;4.498;2023-09-19T04:04:49;100725.00;;;17.07;100.00
72414;BME280;60995;52.154;4.498;2023-09-19T04:07:06;100720.84;;;17.11;100.00
72414;BME280;60995;52.154;4.498;2023-09-19T04:09:22;100713.28;;;17.13;100.00
72414;BME280;60995;52.154;4.498;2023-09-19T04:11:38;100722.19;;;17.15;100.00
72414;BME280;60995;52.154;4.498;2023-09-19T04:13:54;100734.09;;;17.22;100.00
72414;BME280;60995;52.154;4.498;2023-09-19T04:16:11;100732.72;;;17.26;100.00
72414;BME280;60995;52.154;4.498;2023-09-19T04:18:28;100724.38;;;17.19;100.00
72414;BME280;60995;52.154;4.498;2023-09-19T04:20:50;100729.38;;;17.16;100.00
72414;BME280;60995;52.154;4.498;2023-09-19T04:23:06;100728.03;;;17.12;100.00
72414;BME280;60995;52.154;4.498;2023-09-19T04:25:23;100733.88;;;17.09;100.00
72414;BME280;60995;52.154;4.498;2023-09-19T04:27:39;100740.34;;;17.16;100.00
72414;BME280;60995;52.154;4.498;2023-09-19T04:29:56;100747.03;;;17.13;100.00
72414;BME280;60995;52.154;4.498;2023-09-19T04:32:15;100738.75;;;16.98;100.00
72414;BME280;60995;52.154;4.498;2023-09-19T04:34:33;100746.78;;;17.00;100.00
72414;BME280;60995;52.154;4.498;2023-09-19T04:36:54;100747.16;;;16.97;100.00
72414;BME280;60995;52.154;4.498;2023-09-19T04:39:12;100746.44;;;17.03;100.00
72414;BME280;60995;52.154;4.498;2023-09-19T04:41:29;100740.47;;;16.99;100.00
72414;BME280;60995;52.154;4.498;2023-09-19T04:43:45;100742.06;;;16.94;100.00
72414;BME280;60995;52.154;4.498;2023-09-19T04:46:02;100748.88;;;16.98;100.00
72414;BME280;60995;52.154;4.498;2023-09-19T04:48:18;100747.66;;;17.00;100.00
72414;BME280;60995;52.154;4.498;2023-09-19T04:50:35;100735.03;;;16.91;100.00
72414;BME280;60995;52.154;4.498;2023-09-19T04:52:53;100744.22;;;16.98;100.00
72414;BME280;60995;52.154;4.498;2023-09-19T04:55:13;100740.47;;;16.99;100.00
72414;BME280;60995;52.154;4.498;2023-09-19T04:57:32;100745.84;;;17.16;100.00
72414;BME280;60995;52.154;4.498;2023-09-19T04:59:48;100750.94;;;17.19;100.00
72414;BME280;60995;52.154;4.498;2023-09-19T05:02:06;100754.09;;;17.08;100.00
72414;BME280;60995;52.154;4.498;2023-09-19T05:04:24;100745.56;;;17.02;100.00
72414;BME280;60995;52.154;4.498;2023-09-19T05:06:40;100750.31;;;17.09;100.00
72414;BME280;60995;52.154;4.498;2023-09-19T05:08:56;100741.78;;;17.03;100.00
72414;BME280;60995;52.154;4.498;2023-09-19T05:11:13;100743.50;;;17.05;100.00
72414;BME280;60995;52.154;4.498;2023-09-19T05:13:29;100723.22;;;16.91;100.00
72414;BME280;60995;52.154;4.498;2023-09-19T05:15:47;100739.97;;;16.96;100.00
72414;BME280;60995;52.154;4.498;2023-09-19T05:18:03;100732.44;;;16.98;100.00
72414;BME280;60995;52.154;4.498;2023-09-19T05:20:20;100730.81;;;17.03;100.00
72414;BME280;60995;52.154;4.498;2023-09-19T05:22:45;100737.53;;;17.01;100.00
72414;BME280;60995;52.154;4.498;2023-09-19T05:25:02;100734.66;;;16.94;100.00
72414;BME280;60995;52.154;4.498;2023-09-19T05:27:20;100734.69;;;16.86;100.00
72414;BME280;60995;52.154;4.498;2023-09-19T05:29:36;100737.78;;;16.91;100.00
72414;BME280;60995;52.154;4.498;2023-09-19T05:31:53;100740.00;;;16.87;100.00
72414;BME280;60995;52.154;4.498;2023-09-19T05:34:10;100742.16;;;17.00;100.00
72414;BME280;60995;52.154;4.498;2023-09-19T05:36:27;100740.69;;;17.13;100.00
72414;BME280;60995;52.154;4.498;2023-09-19T05:38:45;100742.72;;;17.19;100.00
72414;BME280;60995;52.154;4.498;2023-09-19T05:41:05;100752.66;;;17.20;100.00
72414;BME280;60995;52.154;4.498;2023-09-19T05:43:22;100750.56;;;17.22;100.00
72414;BME280;60995;52.154;4.498;2023-09-19T05:45:39;100756.41;;;17.19;100.00
72414;BME280;60995;52.154;4.498;2023-09-19T05:48:07;100760.81;;;17.28;100.00
72414;BME280;60995;52.154;4.498;2023-09-19T05:50:29;100754.50;;;17.43;100.00
72414;BME280;60995;52.154;4.498;2023-09-19T05:52:51;100749.94;;;17.35;100.00
72414;BME280;60995;52.154;4.498;2023-09-19T05:55:08;100748.59;;;17.54;100.00
72414;BME280;60995;52.154;4.498;2023-09-19T05:57:24;100750.09;;;17.42;100.00
72414;BME280;60995;52.154;4.498;2023-09-19T05:59:41;100751.41;;;17.46;100.00
72414;BME280;60995;52.154;4.498;2023-09-19T06:01:58;100751.59;;;17.44;100.00
72414;BME280;60995;52.154;4.498;2023-09-19T06:04:15;100748.19;;;17.57;100.00
72414;BME280;60995;52.154;4.498;2023-09-19T06:06:31;100757.69;;;17.69;100.00
72414;BME280;60995;52.154;4.498;2023-09-19T06:08:49;100753.75;;;17.87;100.00
72414;BME280;60995;52.154;4.498;2023-09-19T06:11:06;100765.19;;;17.91;100.00
72414;BME280;60995;52.154;4.498;2023-09-19T06:13:23;100755.31;;;18.05;100.00
72414;BME280;60995;52.154;4.498;2023-09-19T06:15:42;100762.38;;;18.29;100.00
72414;BME280;60995;52.154;4.498;2023-09-19T06:17:59;100748.41;;;18.60;100.00
72414;BME280;60995;52.154;4.498;2023-09-19T06:20:17;100762.34;;;18.59;100.00
72414;BME280;60995;52.154;4.498;2023-09-19T06:22:33;100764.84;;;18.39;100.00
72414;BME280;60995;52.154;4.498;2023-09-19T06:24:50;100772.34;;;18.30;100.00
72414;BME280;60995;52.154;4.498;2023-09-19T06:27:06;100770.34;;;18.24;100.00
72414;BME280;60995;52.154;4.498;2023-09-19T06:29:23;100772.63;;;18.05;100.00
72414;BME280;60995;52.154;4.498;2023-09-19T06:31:39;100788.44;;;18.18;100.00
72414;BME280;60995;52.154;4.498;2023-09-19T06:33:55;100782.56;;;18.36;100.00
72414;BME280;60995;52.154;4.498;2023-09-19T06:36:12;100777.00;;;18.29;100.00
72414;BME280;60995;52.154;4.498;2023-09-19T06:38:28;100770.63;;;18.44;100.00
72414;BME280;60995;52.154;4.498;2023-09-19T06:40:44;100783.66;;;18.72;100.00
72414;BME280;60995;52.154;4.498;2023-09-19T06:43:01;100779.47;;;18.76;100.00
72414;BME280;60995;52.154;4.498;2023-09-19T06:45:20;100779.31;;;19.14;100.00
72414;BME280;60995;52.154;4.498;2023-09-19T06:47:37;100777.22;;;19.38;100.00
72414;BME280;60995;52.154;4.498;2023-09-19T06:49:54;100773.41;;;19.39;100.00
72414;BME280;60995;52.154;4.498;2023-09-19T06:52:10;100778.56;;;19.70;100.00
72414;BME280;60995;52.154;4.498;2023-09-19T06:54:27;100784.19;;;20.12;100.00
72414;BME280;60995;52.154;4.498;2023-09-19T06:56:47;100787.34;;;20.50;100.00
72414;BME280;60995;52.154;4.498;2023-09-19T06:59:03;100764.63;;;20.90;100.00
72414;BME280;60995;52.154;4.498;2023-09-19T07:01:21;100769.78;;;21.07;100.00
72414;BME280;60995;52.154;4.498;2023-09-19T07:03:38;100764.13;;;21.69;100.00
72414;BME280;60995;52.154;4.498;2023-09-19T07:05:56;100763.41;;;21.20;100.00
72414;BME280;60995;52.154;4.498;2023-09-19T07:08:14;100779.09;;;21.06;100.00
72414;BME280;60995;52.154;4.498;2023-09-19T07:10:31;100772.53;;;21.07;100.00
72414;BME280;60995;52.154;4.498;2023-09-19T07:12:54;100779.72;;;21.08;100.00
72414;BME280;60995;52.154;4.498;2023-09-19T07:15:14;100780.00;;;21.40;100.00
72414;BME280;60995;52.154;4.498;2023-09-19T07:17:30;100774.69;;;21.31;100.00
72414;BME280;60995;52.154;4.498;2023-09-19T07:19:48;100780.41;;;21.30;100.00
72414;BME280;60995;52.154;4.498;2023-09-19T07:22:06;100781.41;;;20.47;100.00
72414;BME280;60995;52.154;4.498;2023-09-19T07:24:23;100784.38;;;19.82;100.00
72414;BME280;60995;52.154;4.498;2023-09-19T07:26:40;100782.63;;;20.03;100.00
72414;BME280;60995;52.154;4.498;2023-09-19T07:28:56;100787.41;;;20.57;100.00
72414;BME280;60995;52.154;4.498;2023-09-19T07:31:18;100778.81;;;20.39;100.00
72414;BME280;60995;52.154;4.498;2023-09-19T07:33:34;100792.50;;;20.25;100.00
72414;BME280;60995;52.154;4.498;2023-09-19T07:35:50;100794.53;;;20.93;100.00
72414;BME280;60995;52.154;4.498;2023-09-19T07:38:08;100795.00;;;20.55;100.00
72414;BME280;60995;52.154;4.498;2023-09-19T07:40:27;100788.78;;;20.40;100.00
72414;BME280;60995;52.154;4.498;2023-09-19T07:42:44;100794.44;;;19.96;100.00
72414;BME280;60995;52.154;4.498;2023-09-19T07:45:03;100799.91;;;19.90;100.00
72414;BME280;60995;52.154;4.498;2023-09-19T07:47:22;100793.69;;;20.86;100.00
72414;BME280;60995;52.154;4.498;2023-09-19T07:49:38;100791.50;;;21.63;100.00
72414;BME280;60995;52.154;4.498;2023-09-19T07:51:55;100787.06;;;20.80;100.00
72414;BME280;60995;52.154;4.498;2023-09-19T07:54:13;100791.38;;;20.96;100.00
72414;BME280;60995;52.154;4.498;2023-09-19T07:56:30;100786.63;;;21.66;100.00
72414;BME280;60995;52.154;4.498;2023-09-19T07:58:46;100780.47;;;21.90;100.00
72414;BME280;60995;52.154;4.498;2023-09-19T08:01:07;100775.78;;;21.84;100.00
72414;BME280;60995;52.154;4.498;2023-09-19T08:03:26;100765.06;;;22.35;100.00
72414;BME280;60995;52.154;4.498;2023-09-19T08:05:43;100774.47;;;22.00;100.00
72414;BME280;60995;52.154;4.498;2023-09-19T08:08:00;100768.75;;;21.48;100.00
72414;BME280;60995;52.154;4.498;2023-09-19T08:10:17;100774.81;;;20.48;100.00
72414;BME280;60995;52.154;4.498;2023-09-19T08:12:34;100754.72;;;20.61;100.00
72414;BME280;60995;52.154;4.498;2023-09-19T08:14:53;100761.13;;;20.61;100.00
72414;BME280;60995;52.154;4.498;2023-09-19T08:17:11;100761.28;;;21.02;100.00
72414;BME280;60995;52.154;4.498;2023-09-19T08:19:28;100751.31;;;21.21;100.00
72414;BME280;60995;52.154;4.498;2023-09-19T08:21:46;100764.00;;;20.46;100.00
72414;BME280;60995;52.154;4.498;2023-09-19T08:24:03;100760.63;;;20.51;100.00
72414;BME280;60995;52.154;4.498;2023-09-19T08:26:20;100762.94;;;20.89;100.00
72414;BME280;60995;52.154;4.498;2023-09-19T08:28:37;100754.94;;;21.35;100.00
72414;BME280;60995;52.154;4.498;2023-09-19T08:31:01;100760.47;;;21.21;100.00
72414;BME280;60995;52.154;4.498;2023-09-19T08:33:20;100757.38;;;20.34;100.00
72414;BME280;60995;52.154;4.498;2023-09-19T08:35:37;100771.03;;;20.56;100.00
72414;BME280;60995;52.154;4.498;2023-09-19T08:37:57;100766.78;;;20.53;100.00
72414;BME280;60995;52.154;4.498;2023-09-19T08:40:13;100777.13;;;20.03;100.00
72414;BME280;60995;52.154;4.498;2023-09-19T08:42:30;100782.97;;;19.93;100.00
72414;BME280;60995;52.154;4.498;2023-09-19T08:44:46;100788.84;;;19.61;100.00
72414;BME280;60995;52.154;4.498;2023-09-19T08:47:13;100779.31;;;19.14;100.00
72414;BME280;60995;52.154;4.498;2023-09-19T08:52:20;100781.88;;;18.64;100.00
72414;BME280;60995;52.154;4.498;2023-09-19T08:54:41;100790.53;;;18.82;100.00
72414;BME280;60995;52.154;4.498;2023-09-19T08:57:00;100786.13;;;18.66;100.00
72414;BME280;60995;52.154;4.498;2023-09-19T08:59:25;100794.28;;;18.75;100.00
72414;BME280;60995;52.154;4.498;2023-09-19T09:01:45;100800.53;;;18.54;100.00
72414;BME280;60995;52.154;4.498;2023-09-19T09:04:03;100792.31;;;18.24;100.00
72414;BME280;60995;52.154;4.498;2023-09-19T09:06:21;100794.00;;;17.95;100.00
72414;BME280;60995;52.154;4.498;2023-09-19T09:08:39;100799.03;;;18.51;100.00
72414;BME280;60995;52.154;4.498;2023-09-19T09:10:56;100783.31;;;19.11;100.00
72414;BME280;60995;52.154;4.498;2023-09-19T09:13:14;100774.63;;;20.49;100.00
72414;BME280;60995;52.154;4.498;2023-09-19T09:15:35;100797.84;;;20.33;100.00
72414;BME280;60995;52.154;4.498;2023-09-19T09:17:52;100758.13;;;20.56;100.00
72414;BME280;60995;52.154;4.498;2023-09-19T09:20:09;100748.97;;;21.11;100.00
72414;BME280;60995;52.154;4.498;2023-09-19T09:22:26;100743.94;;;21.55;100.00
72414;BME280;60995;52.154;4.498;2023-09-19T09:24:56;100767.88;;;21.14;100.00
72414;BME280;60995;52.154;4.498;2023-09-19T09:27:14;100763.03;;;20.67;100.00
72414;BME280;60995;52.154;4.498;2023-09-19T09:29:51;100749.63;;;20.51;100.00
72414;BME280;60995;52.154;4.498;2023-09-19T09:34:45;100762.09;;;20.40;100.00
72414;BME280;60995;52.154;4.498;2023-09-19T09:37:05;100752.13;;;20.46;100.00
72414;BME280;60995;52.154;4.498;2023-09-19T09:39:31;100748.06;;;20.84;100.00
72414;BME280;60995;52.154;4.498;2023-09-19T09:41:48;100748.88;;;20.77;100.00
72414;BME280;60995;52.154;4.498;2023-09-19T09:44:13;100741.75;;;21.10;100.00
72414;BME280;60995;52.154;4.498;2023-09-19T09:46:31;100747.28;;;21.10;100.00
72414;BME280;60995;52.154;4.498;2023-09-19T09:49:06;100734.09;;;20.98;100.00
72414;BME280;60995;52.154;4.498;2023-09-19T09:54:16;100735.31;;;20.76;100.00
72414;BME280;60995;52.154;4.498;2023-09-19T09:56:52;100733.84;;;20.87;100.00
72414;BME280;60995;52.154;4.498;2023-09-19T09:59:15;100726.09;;;21.30;100.00
72414;BME280;60995;52.154;4.498;2023-09-19T10:01:47;100724.38;;;21.16;100.00
72414;BME280;60995;52.154;4.498;2023-09-19T10:04:06;100714.59;;;21.07;100.00
72414;BME280;60995;52.154;4.498;2023-09-19T10:06:22;100731.38;;;21.25;100.00
72414;BME280;60995;52.154;4.498;2023-09-19T10:08:39;100704.84;;;21.11;100.00
72414;BME280;60995;52.154;4.498;2023-09-19T10:10:55;100707.69;;;20.69;100.00
72414;BME280;60995;52.154;4.498;2023-09-19T10:13:20;100722.22;;;21.11;100.00
72414;BME280;60995;52.154;4.498;2023-09-19T10:15:39;100708.16;;;20.73;100.00
72414;BME280;60995;52.154;4.498;2023-09-19T10:18:07;100715.66;;;20.44;100.00
72414;BME280;60995;52.154;4.498;2023-09-19T10:20:28;100716.06;;;20.41;100.00
72414;BME280;60995;52.154;4.498;2023-09-19T10:22:53;100714.66;;;20.58;100.00
72414;BME280;60995;52.154;4.498;2023-09-19T10:25:13;100702.69;;;20.93;100.00
72414;BME280;60995;52.154;4.498;2023-09-19T10:27:30;100698.00;;;20.93;100.00
72414;BME280;60995;52.154;4.498;2023-09-19T10:29:53;100695.91;;;21.49;100.00
72414;BME280;60995;52.154;4.498;2023-09-19T10:32:14;100700.38;;;21.37;100.00
72414;BME280;60995;52.154;4.498;2023-09-19T10:34:38;100695.59;;;22.11;100.00
72414;BME280;60995;52.154;4.498;2023-09-19T10:36:57;100697.63;;;21.50;100.00
72414;BME280;60995;52.154;4.498;2023-09-19T10:39:15;100688.28;;;21.64;100.00
72414;BME280;60995;52.154;4.498;2023-09-19T10:41:35;100690.63;;;21.41;100.00
72414;BME280;60995;52.154;4.498;2023-09-19T10:43:53;100704.41;;;21.01;100.00
72414;BME280;60995;52.154;4.498;2023-09-19T10:46:13;100708.19;;;20.79;100.00
72414;BME280;60995;52.154;4.498;2023-09-19T10:48:29;100699.13;;;20.44;100.00
72414;BME280;60995;52.154;4.498;2023-09-19T10:50:57;100706.81;;;20.55;100.00
72414;BME280;60995;52.154;4.498;2023-09-19T10:53:22;100702.09;;;21.31;100.00
72414;BME280;60995;52.154;4.498;2023-09-19T10:55:39;100680.84;;;21.45;100.00
72414;BME280;60995;52.154;4.498;2023-09-19T10:57:56;100695.50;;;21.25;100.00
72414;BME280;60995;52.154;4.498;2023-09-19T11:00:29;100680.00;;;21.11;100.00
72414;BME280;60995;52.154;4.498;2023-09-19T11:05:25;100674.69;;;21.70;100.00
72414;BME280;60995;52.154;4.498;2023-09-19T11:07:57;100686.59;;;21.03;100.00
72414;BME280;60995;52.154;4.498;2023-09-19T11:10:48;100677.88;;;21.13;100.00
72414;BME280;60995;52.154;4.498;2023-09-19T11:26:42;100687.13;;;20.10;100.00
72414;BME280;60995;52.154;4.498;2023-09-19T11:29:30;100669.31;;;20.06;100.00
72414;BME280;60995;52.154;4.498;2023-09-19T11:31:47;100687.22;;;19.88;100.00
72414;BME280;60995;52.154;4.498;2023-09-19T11:34:43;100686.69;;;19.43;100.00
72414;BME280;60995;52.154;4.498;2023-09-19T11:39:31;100674.19;;;19.75;100.00
72414;BME280;60995;52.154;4.498;2023-09-19T11:41:48;100665.72;;;19.77;100.00
72414;BME280;60995;52.154;4.498;2023-09-19T11:46:30;100685.47;;;20.15;100.00
72414;BME280;60995;52.154;4.498;2023-09-19T11:48:50;100669.31;;;20.06;100.00
72414;BME280;60995;52.154;4.498;2023-09-19T11:51:14;100670.53;;;19.96;100.00
72414;BME280;60995;52.154;4.498;2023-09-19T11:53:35;100696.78;;;19.92;100.00
72414;BME280;60995;52.154;4.498;2023-09-19T11:55:54;100698.44;;;19.58;100.00
72414;BME280;60995;52.154;4.498;2023-09-19T11:58:16;100700.19;;;19.38;100.00
72414;BME280;60995;52.154;4.498;2023-09-19T12:00:37;100698.25;;;19.38;100.00
72414;BME280;60995;52.154;4.498;2023-09-19T12:02:59;100690.56;;;19.55;100.00
72414;BME280;60995;52.154;4.498;2023-09-19T12:05:29;100698.22;;;18.88;100.00
72414;BME280;60995;52.154;4.498;2023-09-19T12:07:47;100667.91;;;18.81;100.00
72414;BME280;60995;52.154;4.498;2023-09-19T12:10:05;100662.00;;;18.84;100.00
72414;BME280;60995;52.154;4.498;2023-09-19T12:12:26;100647.31;;;18.92;100.00
72414;BME280;60995;52.154;4.498;2023-09-19T12:14:47;100621.34;;;19.23;100.00
72414;BME280;60995;52.154;4.498;2023-09-19T12:17:07;100628.00;;;20.12;100.00
72414;BME280;60995;52.154;4.498;2023-09-19T12:19:23;100628.31;;;20.38;100.00
72414;BME280;60995;52.154;4.498;2023-09-19T12:21:39;100630.47;;;20.56;100.00
72414;BME280;60995;52.154;4.498;2023-09-19T12:24:07;100629.19;;;20.52;100.00
72414;BME280;60995;52.154;4.498;2023-09-19T12:26:29;100638.13;;;20.60;100.00
72414;BME280;60995;52.154;4.498;2023-09-19T12:28:50;100650.47;;;20.71;100.00
72414;BME280;60995;52.154;4.498;2023-09-19T12:31:11;100667.22;;;20.83;100.00
72414;BME280;60995;52.154;4.498;2023-09-19T12:33:28;100638.81;;;21.03;100.00
72414;BME280;60995;52.154;4.498;2023-09-19T12:35:45;100641.16;;;20.92;100.00
72414;BME280;60995;52.154;4.498;2023-09-19T12:38:03;100636.50;;;20.86;100.00
72414;BME280;60995;52.154;4.498;2023-09-19T12:40:21;100649.66;;;21.51;100.00
72414;BME280;60995;52.154;4.498;2023-09-19T12:42:44;100627.97;;;21.55;100.00